createdAt,value
2024-03-16T00:01:20.985Z,99689.69
2024-03-16T00:02:53.015Z,99692.53
2024-03-16T00:04:24.861Z,99687.13
2024-03-16T00:05:57.857Z,99690.09
2024-03-16T00:07:30.333Z,99690.78
2024-03-16T00:09:02.171Z,99687.41
2024-03-16T00:10:34.006Z,99687.41
2024-03-16T00:12:06.966Z,99689.25
2024-03-16T00:13:39.356Z,99692.78
2024-03-16T00:15:11.190Z,99688.25
2024-03-16T00:16:43.294Z,99689.25
2024-03-16T00:18:15.294Z,99696.44
2024-03-16T00:19:47.152Z,99696.44
2024-03-16T00:21:18.991Z,99694.75
2024-03-16T00:22:50.823Z,99695.59
2024-03-16T00:24:22.643Z,99693.75
2024-03-16T00:25:54.453Z,99691.06
2024-03-16T00:27:26.516Z,99702.69
2024-03-16T00:28:58.370Z,99694.75
2024-03-16T00:30:30.929Z,99699.13
2024-03-16T00:32:02.958Z,99694.75
2024-03-16T00:33:34.814Z,99692.06
2024-03-16T00:35:06.816Z,99692.19
2024-03-16T00:36:38.826Z,99694.75
2024-03-16T00:38:11.376Z,99692.06
2024-03-16T00:39:43.319Z,99698.16
2024-03-16T00:41:16.901Z,99705.25
2024-03-16T00:42:48.834Z,99694.47
2024-03-16T00:44:20.728Z,99692.53
2024-03-16T00:45:52.558Z,99690.69
2024-03-16T00:47:24.843Z,99692.38
2024-03-16T00:48:56.738Z,99691.41
2024-03-16T00:50:28.590Z,99694.94
2024-03-16T00:52:00.496Z,99696.63
2024-03-16T00:53:32.596Z,99692.25
2024-03-16T00:55:05.306Z,99695.91
2024-03-16T00:56:37.246Z,99695.91
2024-03-16T00:58:09.224Z,99688.84
2024-03-16T00:59:41.107Z,99694.22
2024-03-16T01:01:13.952Z,99689.69
2024-03-16T01:02:45.934Z,99685.16
2024-03-16T01:04:17.767Z,99695.91
2024-03-16T01:05:53.882Z,99684.31
2024-03-16T01:07:25.716Z,99677.22
2024-03-16T01:08:57.975Z,99685.28
2024-03-16T01:10:29.832Z,99686.28
2024-03-16T01:12:01.641Z,99682.88
2024-03-16T01:13:33.451Z,99685.69
2024-03-16T01:15:07.114Z,99686.78
2024-03-16T01:16:39.052Z,99686.78
2024-03-16T01:18:10.938Z,99681.69
2024-03-16T01:19:44.600Z,99681.69
2024-03-16T01:21:16.501Z,99681.09
2024-03-16T01:22:48.327Z,99681.22
2024-03-16T01:24:20.148Z,99681.34
2024-03-16T01:25:51.977Z,99674.25
2024-03-16T01:27:26.883Z,99676.94
2024-03-16T01:29:00.826Z,99678.78
2024-03-16T01:30:32.703Z,99675.13
2024-03-16T01:32:06.669Z,99675.97
2024-03-16T01:33:40.878Z,99671.44
2024-03-16T01:35:13.700Z,99684.06
2024-03-16T01:36:45.540Z,99678.66
2024-03-16T01:38:18.055Z,99670.59
2024-03-16T01:39:51.386Z,99671.56
2024-03-16T01:41:23.299Z,99668.19
2024-03-16T01:42:55.196Z,99673.56
2024-03-16T01:44:27.119Z,99677.22
2024-03-16T01:45:59.327Z,99666.59
2024-03-16T01:47:33.029Z,99667.59
2024-03-16T01:49:04.946Z,99665.03
2024-03-16T01:50:41.143Z,99671.41
2024-03-16T01:52:14.420Z,99673.34
2024-03-16T01:53:46.299Z,99662.75
2024-03-16T01:55:18.712Z,99669.97
2024-03-16T01:56:50.522Z,99670.94
2024-03-16T01:58:22.378Z,99667.38
2024-03-16T01:59:54.250Z,99665.69
2024-03-16T02:01:27.390Z,99664.97
2024-03-16T02:02:59.339Z,99673.19
2024-03-16T02:04:31.156Z,99669.63
2024-03-16T02:06:03.072Z,99668.06
2024-03-16T02:07:38.337Z,99669.03
2024-03-16T02:09:11.687Z,99671.00
2024-03-16T02:10:43.668Z,99668.44
2024-03-16T02:12:15.553Z,99675.81
2024-03-16T02:13:47.472Z,99666.16
2024-03-16T02:15:19.729Z,99675.34
2024-03-16T02:16:52.625Z,99670.38
2024-03-16T02:18:24.535Z,99672.31
2024-03-16T02:19:56.398Z,99673.56
2024-03-16T02:21:28.231Z,99677.34
2024-03-16T02:23:00.069Z,99672.25
2024-03-16T02:24:32.204Z,99674.22
2024-03-16T02:26:06.143Z,99673.88
2024-03-16T02:27:38.947Z,99667.06
2024-03-16T02:29:10.804Z,99667.19
2024-03-16T02:30:42.943Z,99664.88
2024-03-16T02:32:15.785Z,99660.50
2024-03-16T02:33:47.754Z,99664.28
2024-03-16T02:35:19.624Z,99665.38
2024-03-16T02:36:51.572Z,99662.00
2024-03-16T02:38:24.215Z,99663.00
2024-03-16T02:39:56.127Z,99665.78
2024-03-16T02:41:27.965Z,99660.41
2024-03-16T02:42:59.862Z,99665.78
2024-03-16T02:44:32.194Z,99659.69
2024-03-16T02:46:06.729Z,99666.88
2024-03-16T02:47:38.829Z,99666.88
2024-03-16T02:49:11.246Z,99670.56
2024-03-16T02:50:43.186Z,99672.41
2024-03-16T02:52:15.044Z,99670.69
2024-03-16T02:53:46.989Z,99665.44
2024-03-16T02:55:18.923Z,99669.13
2024-03-16T02:56:50.779Z,99667.41
2024-03-16T02:58:22.600Z,99672.91
2024-03-16T02:59:54.426Z,99669.38
2024-03-16T03:01:26.358Z,99672.19
2024-03-16T03:02:58.765Z,99673.03
2024-03-16T03:04:30.601Z,99663.41
2024-03-16T03:06:02.428Z,99669.88
2024-03-16T03:07:35.277Z,99676.94
2024-03-16T03:09:10.543Z,99676.25
2024-03-16T03:10:42.921Z,99679.88
2024-03-16T03:12:14.839Z,99679.19
2024-03-16T03:13:49.849Z,99685.50
2024-03-16T03:15:21.686Z,99685.50
2024-03-16T03:16:53.622Z,99692.63
2024-03-16T03:18:28.523Z,99682.97
2024-03-16T03:20:00.438Z,99686.50
2024-03-16T03:21:33.326Z,99689.19
2024-03-16T03:23:06.948Z,99690.19
2024-03-16T03:24:38.808Z,99685.66
2024-03-16T03:26:12.486Z,99685.50
2024-03-16T03:27:44.356Z,99688.09
2024-03-16T03:29:16.198Z,99695.31
2024-03-16T03:30:50.486Z,99687.25
2024-03-16T03:32:22.367Z,99688.09
2024-03-16T03:33:54.241Z,99695.06
2024-03-16T03:35:26.697Z,99694.16
2024-03-16T03:36:58.563Z,99693.31
2024-03-16T03:38:31.400Z,99688.94
2024-03-16T03:40:04.212Z,99697.00
2024-03-16T03:41:36.112Z,99693.31
2024-03-16T03:43:18.285Z,99695.16
2024-03-16T03:45:02.041Z,99695.91
2024-03-16T03:46:52.251Z,99694.16
2024-03-16T03:48:24.957Z,99702.97
2024-03-16T03:49:57.497Z,99706.50
2024-03-16T03:51:29.335Z,99707.34
2024-03-16T03:53:02.779Z,99712.72
2024-03-16T03:54:36.248Z,99702.81
2024-03-16T03:56:08.421Z,99698.34
2024-03-16T03:57:40.254Z,99701.72
2024-03-16T03:59:12.090Z,99697.19
2024-03-16T04:00:48.332Z,99699.63
2024-03-16T04:02:20.784Z,99705.00
2024-03-16T04:03:52.693Z,99706.00
2024-03-16T04:05:24.606Z,99706.72
2024-03-16T04:06:56.427Z,99696.00
2024-03-16T04:08:28.341Z,99706.59
2024-03-16T04:10:03.645Z,99704.75
2024-03-16T04:11:35.613Z,99700.22
2024-03-16T04:13:07.507Z,99711.13
2024-03-16T04:14:39.309Z,99714.66
2024-03-16T04:16:13.604Z,99711.97
2024-03-16T04:17:46.321Z,99708.56
2024-03-16T04:19:18.656Z,99718.44
2024-03-16T04:20:50.578Z,99715.75
2024-03-16T04:22:22.530Z,99714.06
2024-03-16T04:23:54.360Z,99723.09
2024-03-16T04:25:26.172Z,99719.56
2024-03-16T04:26:58.109Z,99718.69
2024-03-16T04:28:29.930Z,99716.00
2024-03-16T04:30:01.824Z,99718.81
2024-03-16T04:31:35.010Z,99714.31
2024-03-16T04:33:08.579Z,99716.25
2024-03-16T04:34:40.555Z,99718.94
2024-03-16T04:36:14.076Z,99716.41
2024-03-16T04:37:46.291Z,99719.94
2024-03-16T04:39:18.212Z,99716.41
2024-03-16T04:40:50.416Z,99723.59
2024-03-16T04:42:22.688Z,99727.13
2024-03-16T04:43:54.570Z,99720.91
2024-03-16T04:45:26.624Z,99721.75
2024-03-16T04:46:58.510Z,99724.44
2024-03-16T04:48:30.367Z,99719.94
2024-03-16T04:50:02.225Z,99724.31
2024-03-16T04:51:34.716Z,99719.81
2024-03-16T04:53:06.941Z,99723.34
2024-03-16T04:54:38.766Z,99719.69
2024-03-16T04:56:10.678Z,99720.53
2024-03-16T04:57:42.527Z,99729.44
2024-03-16T04:59:14.424Z,99727.63
2024-03-16T05:00:46.454Z,99722.25
2024-03-16T05:02:18.352Z,99725.78
2024-03-16T05:03:50.237Z,99732.13
2024-03-16T05:05:22.140Z,99731.28
2024-03-16T05:06:54.772Z,99734.94
2024-03-16T05:08:26.696Z,99736.91
2024-03-16T05:09:58.538Z,99733.50
2024-03-16T05:11:30.439Z,99739.81
2024-03-16T05:13:02.359Z,99738.13
2024-03-16T05:14:34.180Z,99737.38
2024-03-16T05:16:09.409Z,99741.22
2024-03-16T05:17:41.430Z,99736.09
2024-03-16T05:19:13.387Z,99740.59
2024-03-16T05:20:45.917Z,99738.16
2024-03-16T05:22:17.886Z,99743.66
2024-03-16T05:23:49.843Z,99743.88
2024-03-16T05:25:21.673Z,99747.63
2024-03-16T05:26:53.627Z,99750.47
2024-03-16T05:28:27.708Z,99749.72
2024-03-16T05:30:00.219Z,99749.97
2024-03-16T05:31:33.333Z,99749.97
2024-03-16T05:33:05.772Z,99753.63
2024-03-16T05:34:39.646Z,99748.41
2024-03-16T05:36:13.972Z,99753.78
2024-03-16T05:37:45.773Z,99758.16
2024-03-16T05:39:17.663Z,99760.00
2024-03-16T05:40:49.547Z,99751.94
2024-03-16T05:42:21.440Z,99755.47
2024-03-16T05:43:54.662Z,99757.31
2024-03-16T05:45:26.690Z,99755.47
2024-03-16T05:46:58.546Z,99763.53
2024-03-16T05:48:30.389Z,99760.00
2024-03-16T05:50:02.293Z,99760.00
2024-03-16T05:51:34.146Z,99759.16
2024-03-16T05:53:06.033Z,99760.00
2024-03-16T05:54:37.926Z,99762.53
2024-03-16T05:56:09.843Z,99762.53
2024-03-16T05:57:41.796Z,99770.50
2024-03-16T05:59:13.632Z,99760.59
2024-03-16T06:00:45.705Z,99768.50
2024-03-16T06:02:17.770Z,99771.09
2024-03-16T06:03:50.814Z,99780.53
2024-03-16T06:05:22.900Z,99780.53
2024-03-16T06:06:54.986Z,99782.94
2024-03-16T06:08:27.239Z,99773.69
2024-03-16T06:09:59.284Z,99782.19
2024-03-16T06:11:31.154Z,99781.00
2024-03-16T06:13:03.989Z,99778.78
2024-03-16T06:14:35.862Z,99786.47
2024-03-16T06:16:07.828Z,99783.25
2024-03-16T06:17:39.879Z,99795.34
2024-03-16T06:19:13.935Z,99790.22
2024-03-16T06:20:45.849Z,99789.81
2024-03-16T06:22:18.087Z,99788.22
2024-03-16T06:23:50.221Z,99793.94
2024-03-16T06:25:22.097Z,99786.22
2024-03-16T06:27:01.941Z,99790.22
2024-03-16T06:28:38.079Z,99792.13
2024-03-16T06:30:11.804Z,99788.81
2024-03-16T06:31:45.451Z,99791.84
2024-03-16T06:33:31.812Z,99801.94
2024-03-16T06:35:04.205Z,99804.00
2024-03-16T06:36:37.152Z,99802.38
2024-03-16T06:38:09.585Z,99809.91
2024-03-16T06:39:41.813Z,99808.41
2024-03-16T06:41:13.636Z,99814.97
2024-03-16T06:42:45.458Z,99811.63
2024-03-16T06:44:18.551Z,99808.25
2024-03-16T06:45:50.755Z,99816.66
2024-03-16T06:47:22.660Z,99817.81
2024-03-16T06:48:54.567Z,99816.31
2024-03-16T06:50:26.572Z,99822.03
2024-03-16T06:51:58.747Z,99832.25
2024-03-16T06:53:30.612Z,99825.47
2024-03-16T06:55:02.544Z,99824.22
2024-03-16T06:56:34.753Z,99822.97
2024-03-16T06:58:06.696Z,99829.78
2024-03-16T06:59:38.613Z,99825.22
2024-03-16T07:01:13.713Z,99825.81
2024-03-16T07:02:45.639Z,99828.13
2024-03-16T07:04:17.703Z,99818.91
2024-03-16T07:05:49.570Z,99829.25
2024-03-16T07:07:21.486Z,99826.16
2024-03-16T07:08:53.650Z,99825.59
2024-03-16T07:10:25.616Z,99834.03
2024-03-16T07:11:57.632Z,99829.78
2024-03-16T07:13:29.482Z,99835.06
2024-03-16T07:15:01.532Z,99836.94
2024-03-16T07:16:33.910Z,99831.41
2024-03-16T07:18:06.374Z,99834.66
2024-03-16T07:19:38.259Z,99839.94
2024-03-16T07:21:10.137Z,99850.28
2024-03-16T07:22:41.950Z,99853.84
2024-03-16T07:24:14.188Z,99850.28
2024-03-16T07:25:51.021Z,99845.63
2024-03-16T07:27:22.943Z,99853.84
2024-03-16T07:28:56.273Z,99850.44
2024-03-16T07:30:28.115Z,99853.25
2024-03-16T07:31:59.948Z,99852.66
2024-03-16T07:33:31.934Z,99856.47
2024-03-16T07:35:08.042Z,99861.28
2024-03-16T07:36:40.185Z,99860.72
2024-03-16T07:38:12.066Z,99861.97
2024-03-16T07:39:44.341Z,99854.25
2024-03-16T07:41:16.297Z,99859.06
2024-03-16T07:42:48.585Z,99860.34
2024-03-16T07:44:20.613Z,99860.03
2024-03-16T07:45:52.668Z,99862.16
2024-03-16T07:47:24.566Z,99868.81
2024-03-16T07:49:08.619Z,99859.22
2024-03-16T07:50:41.920Z,99861.38
2024-03-16T07:52:14.010Z,99866.19
2024-03-16T07:53:45.904Z,99865.03
2024-03-16T07:55:17.916Z,99877.41
2024-03-16T07:56:50.951Z,99870.81
2024-03-16T07:58:23.063Z,99874.25
2024-03-16T07:59:55.668Z,99873.09
2024-03-16T08:01:27.591Z,99873.94
2024-03-16T08:02:59.465Z,99873.94
2024-03-16T08:04:34.508Z,99873.09
2024-03-16T08:06:08.991Z,99870.53
2024-03-16T08:07:41.650Z,99877.97
2024-03-16T08:09:13.835Z,99875.69
2024-03-16T08:10:45.668Z,99875.00
2024-03-16T08:12:17.697Z,99874.47
2024-03-16T08:13:49.591Z,99869.34
2024-03-16T08:15:22.442Z,99871.47
2024-03-16T08:16:54.257Z,99875.19
2024-03-16T08:18:26.354Z,99873.19
2024-03-16T08:19:58.338Z,99878.31
2024-03-16T08:21:31.080Z,99875.16
2024-03-16T08:23:02.982Z,99879.94
2024-03-16T08:24:34.894Z,99871.94
2024-03-16T08:26:07.246Z,99878.28
2024-03-16T08:27:39.340Z,99868.94
2024-03-16T08:29:11.205Z,99869.72
2024-03-16T08:30:44.100Z,99875.91
2024-03-16T08:32:16.174Z,99877.69
2024-03-16T08:33:48.033Z,99877.78
2024-03-16T08:35:20.991Z,99881.41
2024-03-16T08:36:52.863Z,99878.28
2024-03-16T08:38:25.425Z,99884.06
2024-03-16T08:39:57.265Z,99882.75
2024-03-16T08:41:29.136Z,99876.16
2024-03-16T08:43:01.108Z,99884.13
2024-03-16T08:44:33.006Z,99885.81
2024-03-16T08:46:08.269Z,99886.84
2024-03-16T08:47:42.975Z,99879.38
2024-03-16T08:49:15.115Z,99882.97
2024-03-16T08:50:47.470Z,99884.34
2024-03-16T08:52:20.132Z,99884.03
2024-03-16T08:53:52.019Z,99881.69
2024-03-16T08:55:24.770Z,99876.66
2024-03-16T08:56:56.817Z,99879.91
2024-03-16T08:58:30.396Z,99873.00
2024-03-16T09:00:02.425Z,99876.25
2024-03-16T09:01:34.381Z,99877.47
2024-03-16T09:03:06.371Z,99878.16
2024-03-16T09:04:38.216Z,99867.81
2024-03-16T09:06:10.148Z,99877.69
2024-03-16T09:07:42.579Z,99868.69
2024-03-16T09:09:16.766Z,99867.50
2024-03-16T09:10:48.623Z,99873.78
2024-03-16T09:12:20.477Z,99871.94
2024-03-16T09:13:52.300Z,99867.88
2024-03-16T09:15:24.088Z,99865.84
2024-03-16T09:16:55.909Z,99864.84
2024-03-16T09:18:27.737Z,99862.50
2024-03-16T09:20:01.628Z,99866.59
2024-03-16T09:21:34.030Z,99868.81
2024-03-16T09:23:05.912Z,99865.59
2024-03-16T09:24:37.938Z,99868.41
2024-03-16T09:26:09.875Z,99866.22
2024-03-16T09:27:41.793Z,99868.09
2024-03-16T09:29:13.640Z,99878.16
2024-03-16T09:30:46.546Z,99882.75
2024-03-16T09:32:18.688Z,99877.38
2024-03-16T09:33:50.554Z,99870.78
2024-03-16T09:35:22.381Z,99872.31
2024-03-16T09:36:54.228Z,99869.13
2024-03-16T09:38:26.064Z,99860.34
2024-03-16T09:39:58.588Z,99863.41
2024-03-16T09:41:30.775Z,99865.28
